createdAt,value
2018-07-30T00:01:05.383Z,4.7
2018-07-30T00:04:10.143Z,4.7
2018-07-30T00:07:15.039Z,4.7
2018-07-30T00:10:22.476Z,4.7
2018-07-30T00:13:27.239Z,4.7
2018-07-30T00:16:32.075Z,4.7
2018-07-30T00:19:36.837Z,4.7
2018-07-30T00:22:41.598Z,4.7
2018-07-30T00:25:46.356Z,4.7
2018-07-30T00:28:51.125Z,4.7
2018-07-30T00:31:55.915Z,4.7
2018-07-30T00:35:00.681Z,4.7
2018-07-30T00:38:05.449Z,4.7
2018-07-30T00:41:10.206Z,4.7
2018-07-30T00:44:15.212Z,4.7
2018-07-30T00:47:19.997Z,4.7
2018-07-30T00:50:24.792Z,4.7
2018-07-30T00:53:29.607Z,4.7
2018-07-30T00:56:34.363Z,4.7
2018-07-30T00:59:39.145Z,4.7
2018-07-30T01:02:43.904Z,4.7
2018-07-30T01:05:48.691Z,4.7
2018-07-30T01:08:53.449Z,4.7
2018-07-30T01:11:58.246Z,4.7
2018-07-30T01:15:03.011Z,4.7
2018-07-30T01:18:07.764Z,4.7
2018-07-30T01:21:12.528Z,4.7
2018-07-30T01:24:18.305Z,4.7
2018-07-30T01:27:23.680Z,4.7
2018-07-30T01:30:28.629Z,4.7
2018-07-30T01:33:34.257Z,4.7
2018-07-30T01:36:39.016Z,4.7
2018-07-30T01:39:43.777Z,4.7
2018-07-30T01:42:48.570Z,4.7
2018-07-30T01:45:53.331Z,4.7
2018-07-30T01:48:58.088Z,4.7
2018-07-30T01:52:02.848Z,4.7
2018-07-30T01:55:07.607Z,4.7
2018-07-30T01:58:12.373Z,4.7
2018-07-30T02:01:20.041Z,4.7
2018-07-30T02:04:24.807Z,4.7
2018-07-30T02:07:29.559Z,4.7
2018-07-30T02:10:34.326Z,4.7
2018-07-30T02:13:39.083Z,4.7
2018-07-30T02:16:44.070Z,4.7
2018-07-30T02:19:48.815Z,4.7
2018-07-30T02:22:53.576Z,4.7
2018-07-30T02:25:58.339Z,4.7
2018-07-30T02:29:03.100Z,4.7
2018-07-30T02:32:07.896Z,4.7
2018-07-30T02:35:12.659Z,4.7
2018-07-30T02:38:17.420Z,4.7
2018-07-30T02:41:22.177Z,4.7
2018-07-30T02:44:26.977Z,4.7
2018-07-30T02:47:31.734Z,4.7
2018-07-30T02:50:36.499Z,4.7
2018-07-30T02:53:41.265Z,4.7
2018-07-30T02:56:46.040Z,4.7
2018-07-30T02:59:50.783Z,4.7
2018-07-30T03:02:55.542Z,4.8
2018-07-30T03:06:00.301Z,4.8
2018-07-30T03:09:05.061Z,4.8
2018-07-30T03:12:09.824Z,4.8
2018-07-30T03:15:14.623Z,4.8
2018-07-30T03:18:19.382Z,4.8
2018-07-30T03:21:24.139Z,4.8
2018-07-30T03:24:28.898Z,4.9
2018-07-30T03:27:33.658Z,4.9
2018-07-30T03:30:38.418Z,4.9
2018-07-30T03:33:43.177Z,4.9
2018-07-30T03:36:47.936Z,5
2018-07-30T03:39:52.693Z,5
2018-07-30T03:42:57.513Z,5
2018-07-30T03:46:02.271Z,5
2018-07-30T03:49:07.030Z,5.1
2018-07-30T03:52:11.789Z,5.2
2018-07-30T03:55:16.549Z,5.3
2018-07-30T03:58:21.350Z,0.6
2018-07-30T04:01:26.148Z,0.6
2018-07-30T04:04:30.909Z,0.7
2018-07-30T04:07:35.663Z,0.7
2018-07-30T04:10:40.426Z,0.8
2018-07-30T04:13:45.184Z,25.9
2018-07-30T04:16:49.945Z,26.8
2018-07-30T04:19:54.707Z,27.2
2018-07-30T04:22:59.466Z,27
2018-07-30T04:26:04.227Z,27
2018-07-30T04:29:08.990Z,27.2
2018-07-30T04:32:13.748Z,24.8
2018-07-30T04:35:18.506Z,25
2018-07-30T04:38:23.266Z,25.2
2018-07-30T04:41:28.027Z,25.4
2018-07-30T04:44:32.787Z,25.6
2018-07-30T04:47:37.547Z,25.2
